sensor_id;sensor_type;location;lat;lon;timestamp;P1;durP1;ratioP1;P2;durP2;ratioP2
8831;SDS011;4452;50.756;4.472;2023-08-06T00:00:20;11.63;;;3.92;;
8831;SDS011;4452;50.756;4.472;2023-08-06T00:02:46;6.70;;;3.70;;
8831;SDS011;4452;50.756;4.472;2023-08-06T00:05:11;8.80;;;4.57;;
8831;SDS011;4452;50.756;4.472;2023-08-06T00:07:37;11.30;;;4.70;;
8831;SDS011;4452;50.756;4.472;2023-08-06T00:10:03;3.35;;;2.85;;
8831;SDS011;4452;50.756;4.472;2023-08-06T00:12:29;9.95;;;4.00;;
8831;SDS011;4452;50.756;4.472;2023-08-06T00:14:55;6.85;;;4.10;;
8831;SDS011;4452;50.756;4.472;2023-08-06T00:17:24;11.95;;;5.32;;
8831;SDS011;4452;50.756;4.472;2023-08-06T00:19:49;10.35;;;4.43;;
8831;SDS011;4452;50.756;4.472;2023-08-06T00:22:15;14.70;;;4.53;;
8831;SDS011;4452;50.756;4.472;2023-08-06T00:24:41;10.43;;;5.22;;
8831;SDS011;4452;50.756;4.472;2023-08-06T00:27:06;8.18;;;4.75;;
8831;SDS011;4452;50.756;4.472;2023-08-06T00:29:32;11.05;;;4.95;;
8831;SDS011;4452;50.756;4.472;2023-08-06T00:31:58;8.48;;;5.00;;
8831;SDS011;4452;50.756;4.472;2023-08-06T00:34:23;16.00;;;5.50;;
8831;SDS011;4452;50.756;4.472;2023-08-06T00:36:49;10.95;;;5.40;;
8831;SDS011;4452;50.756;4.472;2023-08-06T00:39:15;13.10;;;5.47;;
8831;SDS011;4452;50.756;4.472;2023-08-06T00:41:40;16.52;;;6.53;;
8831;SDS011;4452;50.756;4.472;2023-08-06T00:44:06;20.95;;;6.47;;
8831;SDS011;4452;50.756;4.472;2023-08-06T00:46:32;25.17;;;7.32;;
8831;SDS011;4452;50.756;4.472;2023-08-06T00:48:58;12.75;;;6.68;;
8831;SDS011;4452;50.756;4.472;2023-08-06T00:51:25;16.52;;;6.30;;
8831;SDS011;4452;50.756;4.472;2023-08-06T00:53:52;18.13;;;8.20;;
8831;SDS011;4452;50.756;4.472;2023-08-06T00:56:18;19.17;;;7.45;;
8831;SDS011;4452;50.756;4.472;2023-08-06T00:58:44;20.17;;;9.05;;
8831;SDS011;4452;50.756;4.472;2023-08-06T01:01:11;19.33;;;8.15;;
8831;SDS011;4452;50.756;4.472;2023-08-06T01:03:37;18.30;;;8.02;;
8831;SDS011;4452;50.756;4.472;2023-08-06T01:06:03;21.38;;;9.52;;
8831;SDS011;4452;50.756;4.472;2023-08-06T01:14:12;23.17;;;8.75;;
8831;SDS011;4452;50.756;4.472;2023-08-06T01:16:48;17.45;;;8.23;;
8831;SDS011;4452;50.756;4.472;2023-08-06T01:19:16;19.27;;;8.95;;
8831;SDS011;4452;50.756;4.472;2023-08-06T01:21:42;20.73;;;9.10;;
8831;SDS011;4452;50.756;4.472;2023-08-06T01:24:08;21.35;;;9.18;;
8831;SDS011;4452;50.756;4.472;2023-08-06T01:26:36;26.55;;;10.02;;
8831;SDS011;4452;50.756;4.472;2023-08-06T01:29:10;21.73;;;10.40;;
8831;SDS011;4452;50.756;4.472;2023-08-06T01:31:48;23.08;;;9.18;;
8831;SDS011;4452;50.756;4.472;2023-08-06T01:34:20;21.15;;;10.02;;
8831;SDS011;4452;50.756;4.472;2023-08-06T01:36:48;21.80;;;11.13;;
8831;SDS011;4452;50.756;4.472;2023-08-06T01:39:15;22.75;;;8.30;;
8831;SDS011;4452;50.756;4.472;2023-08-06T01:41:40;16.40;;;9.40;;
8831;SDS011;4452;50.756;4.472;2023-08-06T01:44:06;20.90;;;10.35;;
8831;SDS011;4452;50.756;4.472;2023-08-06T01:46:32;21.42;;;10.13;;
8831;SDS011;4452;50.756;4.472;2023-08-06T01:48:57;17.23;;;9.73;;
8831;SDS011;4452;50.756;4.472;2023-08-06T01:51:23;13.73;;;8.75;;
8831;SDS011;4452;50.756;4.472;2023-08-06T01:53:49;14.75;;;8.35;;
8831;SDS011;4452;50.756;4.472;2023-08-06T01:56:14;19.10;;;7.22;;
8831;SDS011;4452;50.756;4.472;2023-08-06T01:58:40;13.32;;;7.70;;
8831;SDS011;4452;50.756;4.472;2023-08-06T02:01:06;17.20;;;8.23;;
8831;SDS011;4452;50.756;4.472;2023-08-06T02:03:31;12.18;;;6.72;;
8831;SDS011;4452;50.756;4.472;2023-08-06T02:05:57;14.05;;;7.32;;
8831;SDS011;4452;50.756;4.472;2023-08-06T02:08:23;15.82;;;7.57;;
8831;SDS011;4452;50.756;4.472;2023-08-06T02:10:48;16.17;;;7.35;;
8831;SDS011;4452;50.756;4.472;2023-08-06T02:13:14;21.77;;;7.07;;
8831;SDS011;4452;50.756;4.472;2023-08-06T02:15:43;9.20;;;5.93;;
8831;SDS011;4452;50.756;4.472;2023-08-06T02:18:09;10.52;;;4.57;;
8831;SDS011;4452;50.756;4.472;2023-08-06T02:20:35;12.60;;;4.68;;
8831;SDS011;4452;50.756;4.472;2023-08-06T02:23:01;6.72;;;3.95;;
8831;SDS011;4452;50.756;4.472;2023-08-06T02:25:27;11.40;;;4.75;;
8831;SDS011;4452;50.756;4.472;2023-08-06T02:27:53;10.20;;;4.70;;
8831;SDS011;4452;50.756;4.472;2023-08-06T02:30:18;7.88;;;4.18;;
8831;SDS011;4452;50.756;4.472;2023-08-06T02:32:44;12.52;;;4.65;;
8831;SDS011;4452;50.756;4.472;2023-08-06T02:35:09;13.70;;;5.30;;
8831;SDS011;4452;50.756;4.472;2023-08-06T02:37:35;10.95;;;4.55;;
8831;SDS011;4452;50.756;4.472;2023-08-06T02:40:01;8.82;;;4.82;;
8831;SDS011;4452;50.756;4.472;2023-08-06T02:42:27;11.98;;;5.15;;
8831;SDS011;4452;50.756;4.472;2023-08-06T02:44:53;10.20;;;4.80;;
8831;SDS011;4452;50.756;4.472;2023-08-06T02:47:21;5.88;;;4.97;;
8831;SDS011;4452;50.756;4.472;2023-08-06T02:49:47;9.88;;;5.47;;
8831;SDS011;4452;50.756;4.472;2023-08-06T02:52:13;9.52;;;5.20;;
8831;SDS011;4452;50.756;4.472;2023-08-06T02:54:38;10.18;;;4.85;;
8831;SDS011;4452;50.756;4.472;2023-08-06T02:57:04;8.73;;;4.82;;
8831;SDS011;4452;50.756;4.472;2023-08-06T02:59:30;9.43;;;4.85;;
8831;SDS011;4452;50.756;4.472;2023-08-06T03:01:57;6.38;;;4.65;;
8831;SDS011;4452;50.756;4.472;2023-08-06T03:04:23;11.80;;;5.28;;
8831;SDS011;4452;50.756;4.472;2023-08-06T03:06:49;12.07;;;5.55;;
8831;SDS011;4452;50.756;4.472;2023-08-06T03:09:15;12.30;;;5.63;;
8831;SDS011;4452;50.756;4.472;2023-08-06T03:11:41;12.10;;;4.82;;
8831;SDS011;4452;50.756;4.472;2023-08-06T03:14:07;11.20;;;5.40;;
8831;SDS011;4452;50.756;4.472;2023-08-06T03:16:33;16.60;;;6.30;;
8831;SDS011;4452;50.756;4.472;2023-08-06T03:18:58;15.85;;;6.70;;
8831;SDS011;4452;50.756;4.472;2023-08-06T03:21:24;13.38;;;6.47;;
8831;SDS011;4452;50.756;4.472;2023-08-06T03:23:50;12.25;;;7.05;;
8831;SDS011;4452;50.756;4.472;2023-08-06T03:26:16;13.30;;;7.70;;
8831;SDS011;4452;50.756;4.472;2023-08-06T03:28:41;21.60;;;8.45;;
8831;SDS011;4452;50.756;4.472;2023-08-06T03:31:07;15.35;;;7.07;;
8831;SDS011;4452;50.756;4.472;2023-08-06T03:33:33;17.02;;;8.15;;
8831;SDS011;4452;50.756;4.472;2023-08-06T03:35:58;23.90;;;8.32;;
8831;SDS011;4452;50.756;4.472;2023-08-06T03:38:24;29.88;;;9.48;;
8831;SDS011;4452;50.756;4.472;2023-08-06T03:40:50;34.17;;;10.60;;
8831;SDS011;4452;50.756;4.472;2023-08-06T03:43:16;200.35;;;29.13;;
8831;SDS011;4452;50.756;4.472;2023-08-06T03:45:42;45.65;;;13.90;;
8831;SDS011;4452;50.756;4.472;2023-08-06T03:48:08;35.45;;;12.38;;
8831;SDS011;4452;50.756;4.472;2023-08-06T03:50:34;21.02;;;8.48;;
8831;SDS011;4452;50.756;4.472;2023-08-06T03:53:00;28.85;;;9.82;;
8831;SDS011;4452;50.756;4.472;2023-08-06T03:55:26;17.60;;;6.80;;
8831;SDS011;4452;50.756;4.472;2023-08-06T03:57:52;12.48;;;4.95;;
8831;SDS011;4452;50.756;4.472;2023-08-06T04:00:18;10.60;;;5.05;;
8831;SDS011;4452;50.756;4.472;2023-08-06T04:02:44;11.23;;;4.95;;
8831;SDS011;4452;50.756;4.472;2023-08-06T04:05:09;7.38;;;3.92;;
8831;SDS011;4452;50.756;4.472;2023-08-06T04:07:35;4.82;;;2.97;;
8831;SDS011;4452;50.756;4.472;2023-08-06T04:10:02;3.63;;;2.03;;
8831;SDS011;4452;50.756;4.472;2023-08-06T04:12:30;2.30;;;2.10;;
8831;SDS011;4452;50.756;4.472;2023-08-06T04:14:58;2.28;;;2.08;;
8831;SDS011;4452;50.756;4.472;2023-08-06T04:17:27;1.10;;;0.95;;
8831;SDS011;4452;50.756;4.472;2023-08-06T04:19:56;0.30;;;0.30;;
8831;SDS011;4452;50.756;4.472;2023-08-06T04:22:25;0.20;;;0.20;;
8831;SDS011;4452;50.756;4.472;2023-08-06T04:24:51;1.48;;;0.70;;
8831;SDS011;4452;50.756;4.472;2023-08-06T04:27:17;0.20;;;0.20;;
8831;SDS011;4452;50.756;4.472;2023-08-06T04:29:44;0.20;;;0.20;;
8831;SDS011;4452;50.756;4.472;2023-08-06T04:32:10;0.20;;;0.20;;
8831;SDS011;4452;50.756;4.472;2023-08-06T04:34:36;0.15;;;0.15;;
8831;SDS011;4452;50.756;4.472;2023-08-06T04:37:07;0.30;;;0.30;;
8831;SDS011;4452;50.756;4.472;2023-08-06T04:39:33;0.20;;;0.20;;
8831;SDS011;4452;50.756;4.472;2023-08-06T04:42:02;0.40;;;0.40;;
8831;SDS011;4452;50.756;4.472;2023-08-06T04:44:28;0.32;;;0.32;;
8831;SDS011;4452;50.756;4.472;2023-08-06T04:46:54;0.30;;;0.30;;
8831;SDS011;4452;50.756;4.472;2023-08-06T04:49:20;0.40;;;0.40;;
8831;SDS011;4452;50.756;4.472;2023-08-06T04:51:46;0.20;;;0.20;;
8831;SDS011;4452;50.756;4.472;2023-08-06T04:54:12;0.40;;;0.40;;
8831;SDS011;4452;50.756;4.472;2023-08-06T04:56:37;0.80;;;0.65;;
8831;SDS011;4452;50.756;4.472;2023-08-06T04:59:03;0.30;;;0.30;;
8831;SDS011;4452;50.756;4.472;2023-08-06T05:01:29;0.40;;;0.40;;
8831;SDS011;4452;50.756;4.472;2023-08-06T05:03:55;0.40;;;0.40;;
8831;SDS011;4452;50.756;4.472;2023-08-06T05:06:20;0.45;;;0.40;;
8831;SDS011;4452;50.756;4.472;2023-08-06T05:08:46;0.55;;;0.55;;
8831;SDS011;4452;50.756;4.472;2023-08-06T05:11:12;1.17;;;1.13;;
8831;SDS011;4452;50.756;4.472;2023-08-06T05:13:38;0.82;;;0.82;;
8831;SDS011;4452;50.756;4.472;2023-08-06T05:16:04;0.50;;;0.50;;
8831;SDS011;4452;50.756;4.472;2023-08-06T05:18:29;0.50;;;0.50;;
8831;SDS011;4452;50.756;4.472;2023-08-06T05:20:55;0.82;;;0.82;;
8831;SDS011;4452;50.756;4.472;2023-08-06T05:23:21;0.93;;;0.90;;
8831;SDS011;4452;50.756;4.472;2023-08-06T05:25:47;2.25;;;0.95;;
8831;SDS011;4452;50.756;4.472;2023-08-06T05:28:19;0.98;;;0.82;;
8831;SDS011;4452;50.756;4.472;2023-08-06T05:30:45;1.95;;;1.10;;
8831;SDS011;4452;50.756;4.472;2023-08-06T05:33:10;0.77;;;0.77;;
8831;SDS011;4452;50.756;4.472;2023-08-06T05:35:36;0.98;;;0.98;;
8831;SDS011;4452;50.756;4.472;2023-08-06T05:38:02;0.77;;;0.77;;
8831;SDS011;4452;50.756;4.472;2023-08-06T05:40:32;0.77;;;0.57;;
8831;SDS011;4452;50.756;4.472;2023-08-06T05:43:01;0.52;;;0.52;;
8831;SDS011;4452;50.756;4.472;2023-08-06T05:45:30;3.03;;;1.35;;
8831;SDS011;4452;50.756;4.472;2023-08-06T05:47:56;0.75;;;0.75;;
8831;SDS011;4452;50.756;4.472;2023-08-06T05:50:23;0.70;;;0.70;;
8831;SDS011;4452;50.756;4.472;2023-08-06T05:52:49;1.35;;;1.25;;
8831;SDS011;4452;50.756;4.472;2023-08-06T05:55:16;0.82;;;0.82;;
8831;SDS011;4452;50.756;4.472;2023-08-06T05:57:42;1.05;;;1.05;;
8831;SDS011;4452;50.756;4.472;2023-08-06T06:00:08;1.02;;;0.95;;
8831;SDS011;4452;50.756;4.472;2023-08-06T06:02:35;1.40;;;1.20;;
8831;SDS011;4452;50.756;4.472;2023-08-06T06:05:01;0.90;;;0.90;;
8831;SDS011;4452;50.756;4.472;2023-08-06T06:07:26;2.30;;;1.15;;
8831;SDS011;4452;50.756;4.472;2023-08-06T06:09:52;2.28;;;1.40;;
8831;SDS011;4452;50.756;4.472;2023-08-06T06:12:18;2.30;;;0.98;;
8831;SDS011;4452;50.756;4.472;2023-08-06T06:14:44;0.80;;;0.80;;
8831;SDS011;4452;50.756;4.472;2023-08-06T06:17:13;3.30;;;0.98;;
8831;SDS011;4452;50.756;4.472;2023-08-06T06:19:39;8.55;;;2.30;;
8831;SDS011;4452;50.756;4.472;2023-08-06T06:22:05;1.27;;;0.63;;
8831;SDS011;4452;50.756;4.472;2023-08-06T06:24:31;12.13;;;0.70;;
8831;SDS011;4452;50.756;4.472;2023-08-06T06:27:00;0.77;;;0.77;;
8831;SDS011;4452;50.756;4.472;2023-08-06T06:29:26;1.00;;;0.90;;
8831;SDS011;4452;50.756;4.472;2023-08-06T06:31:52;1.08;;;0.98;;
8831;SDS011;4452;50.756;4.472;2023-08-06T06:34:18;0.80;;;0.80;;
8831;SDS011;4452;50.756;4.472;2023-08-06T06:36:47;27.60;;;1.58;;
8831;SDS011;4452;50.756;4.472;2023-08-06T06:39:13;2.40;;;1.13;;
8831;SDS011;4452;50.756;4.472;2023-08-06T06:41:40;0.70;;;0.70;;
8831;SDS011;4452;50.756;4.472;2023-08-06T06:44:33;2.38;;;1.13;;
8831;SDS011;4452;50.756;4.472;2023-08-06T06:46:58;1.38;;;0.77;;
8831;SDS011;4452;50.756;4.472;2023-08-06T06:49:24;0.68;;;0.52;;
8831;SDS011;4452;50.756;4.472;2023-08-06T06:51:50;0.65;;;0.65;;
8831;SDS011;4452;50.756;4.472;2023-08-06T06:54:19;1.58;;;1.30;;
8831;SDS011;4452;50.756;4.472;2023-08-06T06:56:45;1.88;;;1.25;;
8831;SDS011;4452;50.756;4.472;2023-08-06T06:59:11;112.95;;;6.68;;
8831;SDS011;4452;50.756;4.472;2023-08-06T07:01:37;42.55;;;4.10;;
8831;SDS011;4452;50.756;4.472;2023-08-06T07:04:02;546.13;;;41.05;;
8831;SDS011;4452;50.756;4.472;2023-08-06T07:06:33;1.70;;;1.52;;
8831;SDS011;4452;50.756;4.472;2023-08-06T07:08:58;2.50;;;1.55;;
8831;SDS011;4452;50.756;4.472;2023-08-06T07:11:24;3.95;;;2.30;;
8831;SDS011;4452;50.756;4.472;2023-08-06T07:13:55;4.25;;;1.98;;
8831;SDS011;4452;50.756;4.472;2023-08-06T07:16:23;4.00;;;2.33;;
8831;SDS011;4452;50.756;4.472;2023-08-06T07:18:49;4.45;;;1.80;;
8831;SDS011;4452;50.756;4.472;2023-08-06T07:21:16;0.95;;;0.95;;
8831;SDS011;4452;50.756;4.472;2023-08-06T07:23:42;0.90;;;0.90;;
8831;SDS011;4452;50.756;4.472;2023-08-06T07:26:08;1.13;;;1.13;;
8831;SDS011;4452;50.756;4.472;2023-08-06T07:28:34;3.03;;;1.75;;
8831;SDS011;4452;50.756;4.472;2023-08-06T07:31:00;1.95;;;0.90;;
8831;SDS011;4452;50.756;4.472;2023-08-06T07:33:49;4.00;;;1.20;;
8831;SDS011;4452;50.756;4.472;2023-08-06T07:36:15;1.20;;;1.10;;
8831;SDS011;4452;50.756;4.472;2023-08-06T07:38:44;0.98;;;0.98;;
8831;SDS011;4452;50.756;4.472;2023-08-06T07:41:10;0.80;;;0.80;;
8831;SDS011;4452;50.756;4.472;2023-08-06T07:43:35;3.13;;;3.00;;
8831;SDS011;4452;50.756;4.472;2023-08-06T07:46:01;1.48;;;1.10;;
8831;SDS011;4452;50.756;4.472;2023-08-06T07:48:33;0.82;;;0.80;;
8831;SDS011;4452;50.756;4.472;2023-08-06T07:51:02;2.42;;;1.17;;
8831;SDS011;4452;50.756;4.472;2023-08-06T07:53:33;1.45;;;1.40;;
8831;SDS011;4452;50.756;4.472;2023-08-06T07:55:59;1.67;;;1.25;;
8831;SDS011;4452;50.756;4.472;2023-08-06T07:58:27;1.45;;;0.80;;
8831;SDS011;4452;50.756;4.472;2023-08-06T08:00:54;0.85;;;0.85;;
8831;SDS011;4452;50.756;4.472;2023-08-06T08:03:23;1.15;;;1.15;;
8831;SDS011;4452;50.756;4.472;2023-08-06T08:05:50;6.28;;;1.70;;
8831;SDS011;4452;50.756;4.472;2023-08-06T08:08:23;3.10;;;1.33;;
8831;SDS011;4452;50.756;4.472;2023-08-06T08:10:49;1.35;;;1.25;;
8831;SDS011;4452;50.756;4.472;2023-08-06T08:13:15;1.35;;;1.25;;
8831;SDS011;4452;50.756;4.472;2023-08-06T08:15:41;3.80;;;1.08;;
8831;SDS011;4452;50.756;4.472;2023-08-06T08:18:10;0.95;;;0.95;;
8831;SDS011;4452;50.756;4.472;2023-08-06T08:20:36;0.90;;;0.90;;
8831;SDS011;4452;50.756;4.472;2023-08-06T08:23:02;1.15;;;1.15;;
8831;SDS011;4452;50.756;4.472;2023-08-06T08:25:28;2.78;;;1.58;;
8831;SDS011;4452;50.756;4.472;2023-08-06T08:27:54;1.63;;;1.55;;
8831;SDS011;4452;50.756;4.472;2023-08-06T08:30:20;1.35;;;1.20;;
8831;SDS011;4452;50.756;4.472;2023-08-06T08:32:47;0.80;;;0.80;;
8831;SDS011;4452;50.756;4.472;2023-08-06T08:35:14;0.80;;;0.80;;
8831;SDS011;4452;50.756;4.472;2023-08-06T08:37:41;4.90;;;1.00;;
8831;SDS011;4452;50.756;4.472;2023-08-06T08:40:08;0.70;;;0.70;;
8831;SDS011;4452;50.756;4.472;2023-08-06T08:42:34;0.90;;;0.88;;
8831;SDS011;4452;50.756;4.472;2023-08-06T08:45:01;0.88;;;0.88;;
8831;SDS011;4452;50.756;4.472;2023-08-06T08:47:29;0.93;;;0.93;;
8831;SDS011;4452;50.756;4.472;2023-08-06T08:49:59;1.08;;;0.88;;
8831;SDS011;4452;50.756;4.472;2023-08-06T08:52:26;2.42;;;1.20;;
8831;SDS011;4452;50.756;4.472;2023-08-06T08:54:55;3.60;;;1.50;;
8831;SDS011;4452;50.756;4.472;2023-08-06T08:57:21;0.80;;;0.80;;
8831;SDS011;4452;50.756;4.472;2023-08-06T08:59:47;4.35;;;1.35;;
8831;SDS011;4452;50.756;4.472;2023-08-06T09:02:16;847.05;;;262.25;;
8831;SDS011;4452;50.756;4.472;2023-08-06T09:04:43;631.08;;;97.30;;
8831;SDS011;4452;50.756;4.472;2023-08-06T09:07:11;924.05;;;352.73;;
8831;SDS011;4452;50.756;4.472;2023-08-06T09:09:40;1.08;;;1.08;;
8831;SDS011;4452;50.756;4.472;2023-08-06T09:12:12;150.32;;;20.92;;
8831;SDS011;4452;50.756;4.472;2023-08-06T09:14:40;2.78;;;1.23;;
8831;SDS011;4452;50.756;4.472;2023-08-06T09:17:06;73.10;;;52.13;;
8831;SDS011;4452;50.756;4.472;2023-08-06T09:19:32;1999.90;;;999.90;;
8831;SDS011;4452;50.756;4.472;2023-08-06T09:21:58;1999.90;;;999.90;;
8831;SDS011;4452;50.756;4.472;2023-08-06T09:24:27;1999.90;;;999.90;;
8831;SDS011;4452;50.756;4.472;2023-08-06T09:26:53;1999.90;;;999.90;;
8831;SDS011;4452;50.756;4.472;2023-08-06T09:29:19;1999.90;;;999.90;;
8831;SDS011;4452;50.756;4.472;2023-08-06T09:34:55;1999.90;;;999.90;;
8831;SDS011;4452;50.756;4.472;2023-08-06T09:37:22;1999.90;;;999.90;;
8831;SDS011;4452;50.756;4.472;2023-08-06T09:40:33;1999.90;;;999.90;;
8831;SDS011;4452;50.756;4.472;2023-08-06T09:42:52;1999.90;;;999.90;;
8831;SDS011;4452;50.756;4.472;2023-08-06T09:45:18;1999.90;;;999.90;;
8831;SDS011;4452;50.756;4.472;2023-08-06T09:47:44;1999.90;;;999.90;;
8831;SDS011;4452;50.756;4.472;2023-08-06T09:50:19;1999.90;;;999.90;;
8831;SDS011;4452;50.756;4.472;2023-08-06T09:52:46;1999.90;;;999.90;;
8831;SDS011;4452;50.756;4.472;2023-08-06T09:55:25;1999.90;;;999.90;;
8831;SDS011;4452;50.756;4.472;2023-08-06T09:57:51;1999.90;;;999.90;;
8831;SDS011;4452;50.756;4.472;2023-08-06T10:03:24;1999.90;;;999.90;;
8831;SDS011;4452;50.756;4.472;2023-08-06T10:06:21;1999.90;;;999.90;;
8831;SDS011;4452;50.756;4.472;2023-08-06T10:08:52;1999.90;;;999.90;;
8831;SDS011;4452;50.756;4.472;2023-08-06T10:11:17;1999.90;;;999.90;;
8831;SDS011;4452;50.756;4.472;2023-08-06T10:16:46;1999.90;;;999.90;;
8831;SDS011;4452;50.756;4.472;2023-08-06T10:19:16;1999.90;;;999.90;;
8831;SDS011;4452;50.756;4.472;2023-08-06T10:22:11;1999.90;;;999.90;;
8831;SDS011;4452;50.756;4.472;2023-08-06T10:25:01;1999.90;;;999.90;;
8831;SDS011;4452;50.756;4.472;2023-08-06T10:27:34;1999.90;;;999.90;;
8831;SDS011;4452;50.756;4.472;2023-08-06T10:35:50;1999.90;;;999.90;;
8831;SDS011;4452;50.756;4.472;2023-08-06T10:38:18;1999.90;;;999.90;;
8831;SDS011;4452;50.756;4.472;2023-08-06T10:43:26;1999.90;;;999.90;;
8831;SDS011;4452;50.756;4.472;2023-08-06T10:46:03;1999.90;;;999.90;;
8831;SDS011;4452;50.756;4.472;2023-08-06T10:48:55;1999.90;;;999.90;;
8831;SDS011;4452;50.756;4.472;2023-08-06T10:51:25;1999.90;;;999.90;;
8831;SDS011;4452;50.756;4.472;2023-08-06T10:53:52;1999.90;;;999.90;;
8831;SDS011;4452;50.756;4.472;2023-08-06T10:56:23;1999.90;;;999.90;;
8831;SDS011;4452;50.756;4.472;2023-08-06T10:58:57;1999.90;;;999.90;;
8831;SDS011;4452;50.756;4.472;2023-08-06T11:01:23;1999.90;;;999.90;;
8831;SDS011;4452;50.756;4.472;2023-08-06T11:03:52;1999.90;;;999.90;;
8831;SDS011;4452;50.756;4.472;2023-08-06T11:06:22;1999.90;;;999.90;;
8831;SDS011;4452;50.756;4.472;2023-08-06T11:09:10;1999.90;;;999.90;;
8831;SDS011;4452;50.756;4.472;2023-08-06T11:12:02;1999.90;;;999.90;;
8831;SDS011;4452;50.756;4.472;2023-08-06T11:18:37;1999.90;;;999.90;;
8831;SDS011;4452;50.756;4.472;2023-08-06T11:21:15;1999.90;;;999.90;;
8831;SDS011;4452;50.756;4.472;2023-08-06T11:23:44;1999.90;;;999.90;;
8831;SDS011;4452;50.756;4.472;2023-08-06T11:26:10;1999.90;;;999.90;;
8831;SDS011;4452;50.756;4.472;2023-08-06T11:28:36;1999.90;;;999.90;;
8831;SDS011;4452;50.756;4.472;2023-08-06T11:31:02;1999.90;;;999.90;;
8831;SDS011;4452;50.756;4.472;2023-08-06T11:33:29;1999.90;;;999.90;;
8831;SDS011;4452;50.756;4.472;2023-08-06T11:35:55;1999.90;;;999.90;;
8831;SDS011;4452;50.756;4.472;2023-08-06T11:38:29;1999.90;;;999.90;;
8831;SDS011;4452;50.756;4.472;2023-08-06T11:40:55;1999.90;;;999.90;;
8831;SDS011;4452;50.756;4.472;2023-08-06T11:43:22;1999.90;;;999.90;;
8831;SDS011;4452;50.756;4.472;2023-08-06T11:45:50;1999.90;;;999.90;;
8831;SDS011;4452;50.756;4.472;2023-08-06T11:48:19;1999.90;;;999.90;;
8831;SDS011;4452;50.756;4.472;2023-08-06T11:50:54;1999.90;;;999.90;;
8831;SDS011;4452;50.756;4.472;2023-08-06T11:54:00;1999.90;;;999.90;;
8831;SDS011;4452;50.756;4.472;2023-08-06T11:56:42;1999.90;;;999.90;;
8831;SDS011;4452;50.756;4.472;2023-08-06T11:59:57;1999.90;;;999.90;;
8831;SDS011;4452;50.756;4.472;2023-08-06T12:02:36;1999.90;;;999.90;;
8831;SDS011;4452;50.756;4.472;2023-08-06T12:05:18;1999.90;;;999.90;;
8831;SDS011;4452;50.756;4.472;2023-08-06T12:08:04;1999.90;;;999.90;;
8831;SDS011;4452;50.756;4.472;2023-08-06T12:10:54;1999.90;;;999.90;;
8831;SDS011;4452;50.756;4.472;2023-08-06T12:13:20;1999.90;;;999.90;;
8831;SDS011;4452;50.756;4.472;2023-08-06T12:15:46;1999.90;;;999.90;;
8831;SDS011;4452;50.756;4.472;2023-08-06T12:18:15;1999.90;;;999.90;;
8831;SDS011;4452;50.756;4.472;2023-08-06T12:20:45;1999.90;;;999.90;;
8831;SDS011;4452;50.756;4.472;2023-08-06T12:23:11;1999.90;;;999.90;;
8831;SDS011;4452;50.756;4.472;2023-08-06T12:25:44;1999.90;;;999.90;;
8831;SDS011;4452;50.756;4.472;2023-08-06T12:28:47;1999.90;;;999.90;;
8831;SDS011;4452;50.756;4.472;2023-08-06T12:31:23;1999.90;;;999.90;;
8831;SDS011;4452;50.756;4.472;2023-08-06T12:33:49;1999.90;;;999.90;;
8831;SDS011;4452;50.756;4.472;2023-08-06T12:36:15;1999.90;;;999.90;;
8831;SDS011;4452;50.756;4.472;2023-08-06T12:38:41;1999.90;;;999.90;;
8831;SDS011;4452;50.756;4.472;2023-08-06T12:41:06;1999.90;;;999.90;;
8831;SDS011;4452;50.756;4.472;2023-08-06T12:43:35;1999.90;;;999.90;;
8831;SDS011;4452;50.756;4.472;2023-08-06T12:46:01;1999.90;;;999.90;;
8831;SDS011;4452;50.756;4.472;2023-08-06T12:48:30;1999.90;;;999.90;;
8831;SDS011;4452;50.756;4.472;2023-08-06T12:50:56;1999.90;;;999.90;;
8831;SDS011;4452;50.756;4.472;2023-08-06T12:53:21;1999.90;;;999.90;;
8831;SDS011;4452;50.756;4.472;2023-08-06T12:55:51;1999.90;;;999.90;;
8831;SDS011;4452;50.756;4.472;2023-08-06T12:58:17;1999.90;;;999.90;;
8831;SDS011;4452;50.756;4.472;2023-08-06T13:00:46;1999.90;;;999.90;;
8831;SDS011;4452;50.756;4.472;2023-08-06T13:03:12;1999.90;;;999.90;;
8831;SDS011;4452;50.756;4.472;2023-08-06T13:05:37;1999.90;;;999.90;;
8831;SDS011;4452;50.756;4.472;2023-08-06T13:08:03;1999.90;;;999.90;;
8831;SDS011;4452;50.756;4.472;2023-08-06T13:10:29;1999.90;;;999.90;;
8831;SDS011;4452;50.756;4.472;2023-08-06T13:12:56;1999.90;;;999.90;;
8831;SDS011;4452;50.756;4.472;2023-08-06T13:15:25;1999.90;;;999.90;;
8831;SDS011;4452;50.756;4.472;2023-08-06T13:17:57;1999.90;;;999.90;;
8831;SDS011;4452;50.756;4.472;2023-08-06T13:20:23;1999.90;;;999.90;;
8831;SDS011;4452;50.756;4.472;2023-08-06T13:22:49;1999.90;;;999.90;;
8831;SDS011;4452;50.756;4.472;2023-08-06T13:25:44;1999.90;;;999.90;;
8831;SDS011;4452;50.756;4.472;2023-08-06T13:28:25;1999.90;;;999.90;;
8831;SDS011;4452;50.756;4.472;2023-08-06T13:30:54;1999.90;;;999.90;;
8831;SDS011;4452;50.756;4.472;2023-08-06T13:33:20;1999.90;;;999.90;;
8831;SDS011;4452;50.756;4.472;2023-08-06T13:35:46;1999.90;;;999.90;;
8831;SDS011;4452;50.756;4.472;2023-08-06T13:38:11;1999.90;;;999.90;;
8831;SDS011;4452;50.756;4.472;2023-08-06T13:40:37;1999.90;;;999.90;;
8831;SDS011;4452;50.756;4.472;2023-08-06T13:43:09;1999.90;;;999.90;;
8831;SDS011;4452;50.756;4.472;2023-08-06T13:45:35;1999.90;;;999.90;;
8831;SDS011;4452;50.756;4.472;2023-08-06T13:48:03;1999.90;;;999.90;;
8831;SDS011;4452;50.756;4.472;2023-08-06T13:50:29;1999.90;;;999.90;;
8831;SDS011;4452;50.756;4.472;2023-08-06T13:52:55;1999.90;;;999.90;;
8831;SDS011;4452;50.756;4.472;2023-08-06T13:55:21;1999.90;;;999.90;;
8831;SDS011;4452;50.756;4.472;2023-08-06T13:57:47;1999.90;;;999.90;;
8831;SDS011;4452;50.756;4.472;2023-08-06T14:00:15;1999.90;;;999.90;;
8831;SDS011;4452;50.756;4.472;2023-08-06T14:02:44;1999.90;;;999.90;;
8831;SDS011;4452;50.756;4.472;2023-08-06T14:05:10;1999.90;;;999.90;;
8831;SDS011;4452;50.756;4.472;2023-08-06T14:07:35;1999.90;;;999.90;;
8831;SDS011;4452;50.756;4.472;2023-08-06T14:10:06;1999.90;;;999.90;;
8831;SDS011;4452;50.756;4.472;2023-08-06T14:12:34;1999.90;;;999.90;;
8831;SDS011;4452;50.756;4.472;2023-08-06T14:15:00;1999.90;;;999.90;;
8831;SDS011;4452;50.756;4.472;2023-08-06T14:17:28;1999.90;;;999.90;;
8831;SDS011;4452;50.756;4.472;2023-08-06T14:19:54;1999.90;;;999.90;;
8831;SDS011;4452;50.756;4.472;2023-08-06T14:22:20;1999.90;;;999.90;;
8831;SDS011;4452;50.756;4.472;2023-08-06T14:24:46;1999.90;;;999.90;;
8831;SDS011;4452;50.756;4.472;2023-08-06T14:27:12;1999.90;;;999.90;;
8831;SDS011;4452;50.756;4.472;2023-08-06T14:29:38;1999.90;;;999.90;;
8831;SDS011;4452;50.756;4.472;2023-08-06T14:32:04;1999.90;;;999.90;;
8831;SDS011;4452;50.756;4.472;2023-08-06T14:34:30;1999.90;;;999.90;;
8831;SDS011;4452;50.756;4.472;2023-08-06T14:36:56;1999.90;;;999.90;;
8831;SDS011;4452;50.756;4.472;2023-08-06T14:39:27;1999.90;;;999.90;;
8831;SDS011;4452;50.756;4.472;2023-08-06T14:41:53;1999.90;;;999.90;;
8831;SDS011;4452;50.756;4.472;2023-08-06T14:44:19;1999.90;;;999.90;;
8831;SDS011;4452;50.756;4.472;2023-08-06T14:46:45;1999.90;;;999.90;;
8831;SDS011;4452;50.756;4.472;2023-08-06T14:49:14;1999.90;;;999.90;;
8831;SDS011;4452;50.756;4.472;2023-08-06T14:51:39;1999.90;;;999.90;;
8831;SDS011;4452;50.756;4.472;2023-08-06T14:54:14;1999.90;;;999.90;;
8831;SDS011;4452;50.756;4.472;2023-08-06T14:56:40;1999.90;;;999.90;;
8831;SDS011;4452;50.756;4.472;2023-08-06T14:59:05;1999.90;;;999.90;;
8831;SDS011;4452;50.756;4.472;2023-08-06T15:01:31;1999.90;;;999.90;;
8831;SDS011;4452;50.756;4.472;2023-08-06T15:03:58;1999.90;;;999.90;;
8831;SDS011;4452;50.756;4.472;2023-08-06T15:06:24;1999.90;;;999.90;;
8831;SDS011;4452;50.756;4.472;2023-08-06T15:08:50;1999.90;;;999.90;;
8831;SDS011;4452;50.756;4.472;2023-08-06T15:11:15;1999.90;;;999.90;;
8831;SDS011;4452;50.756;4.472;2023-08-06T15:13:41;1999.90;;;999.90;;
8831;SDS011;4452;50.756;4.472;2023-08-06T15:16:18;1999.90;;;999.90;;
8831;SDS011;4452;50.756;4.472;2023-08-06T15:18:50;1999.90;;;999.90;;